SR-99 : Milgeo Atmospheric Data: 04/18/2019 Summary  Detailed Graphs  Station List

  Temperature     Wind Precipitation Visibility
Timestamp Air Wet
Bulb
Dew-
point
24-hr
Max
24-hr
Min
Relative
Humidity
Atmospheric
Pressure
Avg
Speed
Avg
Dir
Spot
Speed
Spot
Dir
Max
Speed
Max
Dir
  Rate Situation Start End 1 hr 3 hr 6 hr 12 hr 24 hr   Situation
Date Time °F °F °F °F °F % in Hg mph ° mph ° mph ° Y/N in/hr text Date Time Date Time in in in in in mi text
04/18/2019 12:22 AM 62.24 56.12 51.80 79.70 48.92 68.0 x x x x x x x No 0.000 No Precipitation 04/16/2019 05:42 AM 04/16/2019 05:59 AM 0.000 0.000 0.000 0.000 0.000 1.24 Clear
04/18/2019 12:32 AM 62.96 56.48 51.80 79.70 48.92 66.0 x x x x x x x No 0.000 No Precipitation 04/16/2019 05:42 AM 04/16/2019 05:59 AM 0.000 0.000 0.000 0.000 0.000 1.24 Clear
04/18/2019 01:11 AM 61.52 55.76 51.80 79.70 48.92 70.0 x x x x x x x No 0.000 No Precipitation 04/16/2019 05:42 AM 04/16/2019 05:59 AM 0.000 0.000 0.000 0.000 0.000 1.24 Clear
04/18/2019 01:42 AM 59.90 55.22 51.80 79.70 48.92 75.0 x x x x x x x No 0.000 No Precipitation 04/16/2019 05:42 AM 04/16/2019 05:59 AM 0.000 0.000 0.000 0.000 0.000 1.24 Clear
04/18/2019 02:02 AM 59.72 55.04 51.62 79.70 48.92 74.0 x x x x x x x No 0.000 No Precipitation 04/16/2019 05:42 AM 04/16/2019 05:59 AM 0.000 0.000 0.000 0.000 0.000 1.24 Clear
04/18/2019 03:03 AM 57.56 54.32 51.80 79.70 48.92 80.0 x x x x x x x No 0.000 No Precipitation 04/16/2019 05:42 AM 04/16/2019 05:59 AM 0.000 0.000 0.000 0.000 0.000 1.24 Clear
04/18/2019 03:22 AM 58.64 54.86 51.80 79.70 48.92 78.0 x x x x x x x No 0.000 No Precipitation 04/16/2019 05:42 AM 04/16/2019 05:59 AM 0.000 0.000 0.000 0.000 0.000 1.24 Clear
04/18/2019 03:42 AM 59.00 54.68 51.62 79.70 48.92 77.0 x x x x x x x No 0.000 No Precipitation 04/16/2019 05:42 AM 04/16/2019 05:59 AM 0.000 0.000 0.000 0.000 0.000 1.24 Clear
04/18/2019 04:32 AM 58.46 54.50 51.62 79.70 48.92 78.0 x x x x x x x No 0.000 No Precipitation 04/16/2019 05:42 AM 04/16/2019 05:59 AM 0.000 0.000 0.000 0.000 0.000 1.24 Clear
04/18/2019 04:41 AM 58.28 54.50 51.62 79.70 48.92 78.0 x x x x x x x No 0.000 No Precipitation 04/16/2019 05:42 AM 04/16/2019 05:59 AM 0.000 0.000 0.000 0.000 0.000 1.24 Clear
04/18/2019 05:02 AM 58.28 54.50 51.62 79.70 48.92 78.0 x x x x x x x No 0.000 No Precipitation 04/16/2019 05:42 AM 04/16/2019 05:59 AM 0.000 0.000 0.000 0.000 0.000 1.24 Clear
04/18/2019 05:12 AM 57.20 53.96 51.08 79.70 49.46 80.0 x x x x x x x No 0.000 No Precipitation 04/16/2019 05:42 AM 04/16/2019 05:59 AM 0.000 0.000 0.000 0.000 0.000 1.24 Clear
04/18/2019 06:01 AM 57.20 53.60 50.72 79.70 49.46 79.0 x x x x x x x No 0.000 No Precipitation 04/16/2019 05:42 AM 04/16/2019 05:59 AM 0.000 0.000 0.000 0.000 0.000 1.24 Clear
04/18/2019 06:21 AM 57.02 53.06 50.18 79.70 49.64 78.0 x x x x x x x No 0.000 No Precipitation 04/16/2019 05:42 AM 04/16/2019 05:59 AM 0.000 0.000 0.000 0.000 0.000 1.24 Clear
04/18/2019 06:31 AM 55.94 52.88 50.18 79.70 49.64 81.0 x x x x x x x No 0.000 No Precipitation 04/16/2019 05:42 AM 04/16/2019 05:59 AM 0.000 0.000 0.000 0.000 0.000 1.24 Clear
04/18/2019 06:41 AM 55.94 52.88 50.36 79.70 49.64 81.0 x x x x x x x No 0.000 No Precipitation 04/16/2019 05:42 AM 04/16/2019 05:59 AM 0.000 0.000 0.000 0.000 0.000 1.24 Clear
04/18/2019 06:52 AM 55.58 52.70 50.36 79.70 49.64 82.0 x x x x x x x No 0.000 No Precipitation 04/16/2019 05:42 AM 04/16/2019 05:59 AM 0.000 0.000 0.000 0.000 0.000 1.24 Clear
04/18/2019 07:21 AM 56.66 53.42 50.72 79.70 51.80 79.0 x x x x x x x No 0.000 No Precipitation 04/16/2019 05:42 AM 04/16/2019 05:59 AM 0.000 0.000 0.000 0.000 0.000 1.24 Clear
04/18/2019 07:31 AM 57.20 53.42 50.18 79.70 51.80 77.0 x x x x x x x No 0.000 No Precipitation 04/16/2019 05:42 AM 04/16/2019 05:59 AM 0.000 0.000 0.000 0.000 0.000 1.24 Clear
04/18/2019 07:41 AM 55.94 52.52 50.00 79.70 51.80 81.0 x x x x x x x No 0.000 No Precipitation 04/16/2019 05:42 AM 04/16/2019 05:59 AM 0.000 0.000 0.000 0.000 0.000 1.24 Clear
04/18/2019 07:51 AM 55.58 52.52 50.00 79.70 51.80 81.0 x x x x x x x No 0.000 No Precipitation 04/16/2019 05:42 AM 04/16/2019 05:59 AM 0.000 0.000 0.000 0.000 0.000 1.24 Clear
04/18/2019 08:31 AM 60.44 55.22 51.62 79.70 54.32 72.0 x x x x x x x No 0.000 No Precipitation 04/16/2019 05:42 AM 04/16/2019 05:59 AM 0.000 0.000 0.000 0.000 0.000 1.24 Clear
04/18/2019 09:01 AM 62.24 56.48 52.16 79.70 54.32 69.0 x x x x x x x No 0.000 No Precipitation 04/16/2019 05:42 AM 04/16/2019 05:59 AM 0.000 0.000 0.000 0.000 0.000 1.24 Clear
04/18/2019 09:21 AM 63.68 57.38 52.70 79.70 54.32 67.0 x x x x x x x No 0.000 No Precipitation 04/16/2019 05:42 AM 04/16/2019 05:59 AM 0.000 0.000 0.000 0.000 0.000 1.24 Clear
04/18/2019 09:32 AM 64.58 57.92 53.06 79.70 54.32 67.0 x x x x x x x No 0.000 No Precipitation 04/16/2019 05:42 AM 04/16/2019 05:59 AM 0.000 0.000 0.000 0.000 0.000 1.24 Clear
04/18/2019 09:42 AM 65.66 58.28 53.60 79.70 54.32 64.0 x x x x x x x No 0.000 No Precipitation 04/16/2019 05:42 AM 04/16/2019 05:59 AM 0.000 0.000 0.000 0.000 0.000 1.24 Clear
04/18/2019 09:51 AM 65.30 58.46 53.60 79.70 54.32 65.0 x x x x x x x No 0.000 No Precipitation 04/16/2019 05:42 AM 04/16/2019 05:59 AM 0.000 0.000 0.000 0.000 0.000 1.24 Clear
04/18/2019 10:11 AM 66.74 58.28 52.70 79.70 54.32 60.0 x x x x x x x No 0.000 No Precipitation 04/16/2019 05:42 AM 04/16/2019 05:59 AM 0.000 0.000 0.000 0.000 0.000 1.24 Clear
04/18/2019 10:21 AM 67.64 58.64 52.34 79.70 54.32 57.0 x x x x x x x No 0.000 No Precipitation 04/16/2019 05:42 AM 04/16/2019 05:59 AM 0.000 0.000 0.000 0.000 0.000 1.24 Clear
04/18/2019 10:31 AM 68.72 59.00 53.06 79.70 54.32 56.0 x x x x x x x No 0.000 No Precipitation 04/16/2019 05:42 AM 04/16/2019 05:59 AM 0.000 0.000 0.000 0.000 0.000 1.24 Clear
04/18/2019 11:01 AM 71.06 60.26 52.70 79.70 54.32 52.0 x x x x x x x No 0.000 No Precipitation 04/16/2019 05:42 AM 04/16/2019 05:59 AM 0.000 0.000 0.000 0.000 0.000 1.24 Clear
04/18/2019 11:11 AM 71.60 59.72 51.44 79.70 54.32 48.0 x x x x x x x No 0.000 No Precipitation 04/16/2019 05:42 AM 04/16/2019 05:59 AM 0.000 0.000 0.000 0.000 0.000 1.24 Clear
04/18/2019 11:22 AM 72.50 60.62 52.88 79.70 54.32 50.0 x x x x x x x No 0.000 No Precipitation 04/16/2019 05:42 AM 04/16/2019 05:59 AM 0.000 0.000 0.000 0.000 0.000 1.24 Clear
04/18/2019 11:31 AM 73.40 61.52 53.42 79.70 54.32 50.0 x x x x x x x No 0.000 No Precipitation 04/16/2019 05:42 AM 04/16/2019 05:59 AM 0.000 0.000 0.000 0.000 0.000 1.24 Clear
04/18/2019 11:51 AM 73.40 62.06 53.96 79.70 54.32 52.0 x x x x x x x No 0.000 No Precipitation 04/16/2019 05:42 AM 04/16/2019 05:59 AM 0.000 0.000 0.000 0.000 0.000 1.24 Clear
04/18/2019 12:02 PM 75.56 63.32 55.40 79.70 54.32 49.0 x x x x x x x No 0.000 No Precipitation 04/16/2019 05:42 AM 04/16/2019 05:59 AM 0.000 0.000 0.000 0.000 0.000 1.24 Clear
04/18/2019 12:11 PM 74.84 62.96 54.32 79.70 54.32 48.0 x x x x x x x No 0.000 No Precipitation 04/16/2019 05:42 AM 04/16/2019 05:59 AM 0.000 0.000 0.000 0.000 0.000 1.24 Clear
04/18/2019 12:21 PM 75.56 63.14 55.76 79.70 54.32 50.0 x x x x x x x No 0.000 No Precipitation 04/16/2019 05:42 AM 04/16/2019 05:59 AM 0.000 0.000 0.000 0.000 0.000 1.24 Clear
04/18/2019 12:31 PM 76.46 63.68 56.12 79.70 54.32 49.0 x x x x x x x No 0.000 No Precipitation 04/16/2019 05:42 AM 04/16/2019 05:59 AM 0.000 0.000 0.000 0.000 0.000 1.24 Clear
04/18/2019 12:41 PM 76.82 64.04 56.66 79.70 54.32 50.0 x x x x x x x No 0.000 No Precipitation 04/16/2019 05:42 AM 04/16/2019 05:59 AM 0.000 0.000 0.000 0.000 0.000 1.24 Clear
04/18/2019 12:51 PM 78.08 64.22 56.66 79.70 54.32 48.0 x x x x x x x No 0.000 No Precipitation 04/16/2019 05:42 AM 04/16/2019 05:59 AM 0.000 0.000 0.000 0.000 0.000 1.24 Clear
04/18/2019 01:01 PM 78.08 63.50 55.40 79.70 54.32 45.0 x x x x x x x No 0.000 No Precipitation 04/16/2019 05:42 AM 04/16/2019 05:59 AM 0.000 0.000 0.000 0.000 0.000 1.24 Clear
04/18/2019 01:12 PM 77.36 63.86 55.04 79.70 54.32 47.0 x x x x x x x No 0.000 No Precipitation 04/16/2019 05:42 AM 04/16/2019 05:59 AM 0.000 0.000 0.000 0.000 0.000 1.24 Clear
04/18/2019 01:41 PM 78.44 63.68 53.96 79.70 54.32 43.0 x x x x x x x No 0.000 No Precipitation 04/16/2019 05:42 AM 04/16/2019 05:59 AM 0.000 0.000 0.000 0.000 0.000 1.24 Clear
04/18/2019 02:01 PM 79.16 63.50 54.32 81.32 54.32 43.0 x x x x x x x No 0.000 No Precipitation 04/16/2019 05:42 AM 04/16/2019 05:59 AM 0.000 0.000 0.000 0.000 0.000 1.24 Clear
04/18/2019 02:31 PM 81.50 65.30 55.04 81.68 54.32 42.0 x x x x x x x No 0.000 No Precipitation 04/16/2019 05:42 AM 04/16/2019 05:59 AM 0.000 0.000 0.000 0.000 0.000 1.24 Clear
04/18/2019 02:41 PM 81.86 65.12 56.30 81.86 54.32 40.0 x x x x x x x No 0.000 No Precipitation 04/16/2019 05:42 AM 04/16/2019 05:59 AM 0.000 0.000 0.000 0.000 0.000 1.24 Clear
04/18/2019 03:02 PM 82.76 64.40 53.60 83.48 54.32 37.0 x x x x x x x No 0.000 No Precipitation 04/16/2019 05:42 AM 04/16/2019 05:59 AM 0.000 0.000 0.000 0.000 0.000 1.24 Clear
04/18/2019 03:21 PM 82.58 64.58 53.78 83.48 54.32 37.0 x x x x x x x No 0.000 No Precipitation 04/16/2019 05:42 AM 04/16/2019 05:59 AM 0.000 0.000 0.000 0.000 0.000 1.24 Clear
04/18/2019 03:41 PM 83.84 64.94 53.42 84.38 54.32 36.0 x x x x x x x No 0.000 No Precipitation 04/16/2019 05:42 AM 04/16/2019 05:59 AM 0.000 0.000 0.000 0.000 0.000 1.24 Clear
04/18/2019 03:52 PM 84.20 65.30 53.24 84.38 54.32 35.0 x x x x x x x No 0.000 No Precipitation 04/16/2019 05:42 AM 04/16/2019 05:59 AM 0.000 0.000 0.000 0.000 0.000 1.24 Clear
04/18/2019 04:01 PM 83.48 64.22 52.34 84.74 54.32 34.0 x x x x x x x No 0.000 No Precipitation 04/16/2019 05:42 AM 04/16/2019 05:59 AM 0.000 0.000 0.000 0.000 0.000 1.24 Clear
04/18/2019 04:12 PM 84.20 64.76 52.70 84.74 54.32 33.0 x x x x x x x No 0.000 No Precipitation 04/16/2019 05:42 AM 04/16/2019 05:59 AM 0.000 0.000 0.000 0.000 0.000 1.24 Clear
04/18/2019 04:21 PM 84.38 64.76 53.24 85.46 54.32 34.0 x x x x x x x No 0.000 No Precipitation 04/16/2019 05:42 AM 04/16/2019 05:59 AM 0.000 0.000 0.000 0.000 0.000 1.24 Clear
04/18/2019 04:31 PM 83.48 64.22 51.80 85.46 54.32 33.0 x x x x x x x No 0.000 No Precipitation 04/16/2019 05:42 AM 04/16/2019 05:59 AM 0.000 0.000 0.000 0.000 0.000 1.24 Clear
04/18/2019 04:41 PM 85.28 65.30 53.06 85.46 54.32 34.0 x x x x x x x No 0.000 No Precipitation 04/16/2019 05:42 AM 04/16/2019 05:59 AM 0.000 0.000 0.000 0.000 0.000 1.24 Clear
04/18/2019 04:51 PM 85.46 65.30 53.24 85.82 54.32 32.0 x x x x x x x No 0.000 No Precipitation 04/16/2019 05:42 AM 04/16/2019 05:59 AM 0.000 0.000 0.000 0.000 0.000 1.24 Clear
04/18/2019 05:01 PM 86.18 65.84 53.96 86.18 54.32 33.0 x x x x x x x No 0.000 No Precipitation 04/16/2019 05:42 AM 04/16/2019 05:59 AM 0.000 0.000 0.000 0.000 0.000 1.24 Clear
04/18/2019 05:21 PM 84.56 65.12 53.24 86.18 54.32 34.0 x x x x x x x No 0.000 No Precipitation 04/16/2019 05:42 AM 04/16/2019 05:59 AM 0.000 0.000 0.000 0.000 0.000 1.24 Clear
04/18/2019 05:41 PM 84.20 65.30 53.60 86.18 54.32 34.0 x x x x x x x No 0.000 No Precipitation 04/16/2019 05:42 AM 04/16/2019 05:59 AM 0.000 0.000 0.000 0.000 0.000 1.24 Clear
04/18/2019 05:51 PM 84.92 65.30 53.60 86.18 54.32 34.0 x x x x x x x No 0.000 No Precipitation 04/16/2019 05:42 AM 04/16/2019 05:59 AM 0.000 0.000 0.000 0.000 0.000 1.24 Clear
04/18/2019 06:01 PM 84.92 65.48 53.60 86.18 54.32 34.0 x x x x x x x No 0.000 No Precipitation 04/16/2019 05:42 AM 04/16/2019 05:59 AM 0.000 0.000 0.000 0.000 0.000 1.24 Clear
04/18/2019 06:12 PM 85.28 65.66 53.78 86.18 54.32 34.0 x x x x x x x No 0.000 No Precipitation 04/16/2019 05:42 AM 04/16/2019 05:59 AM 0.000 0.000 0.000 0.000 0.000 1.24 Clear
04/18/2019 06:21 PM 85.10 66.20 55.22 86.18 54.32 36.0 x x x x x x x No 0.000 No Precipitation 04/16/2019 05:42 AM 04/16/2019 05:59 AM 0.000 0.000 0.000 0.000 0.000 1.24 Clear
04/18/2019 06:31 PM 84.20 65.66 54.86 86.18 54.32 36.0 x x x x x x x No 0.000 No Precipitation 04/16/2019 05:42 AM 04/16/2019 05:59 AM 0.000 0.000 0.000 0.000 0.000 1.24 Clear
04/18/2019 06:41 PM 84.38 65.48 54.50 86.18 54.32 36.0 x x x x x x x No 0.000 No Precipitation 04/16/2019 05:42 AM 04/16/2019 05:59 AM 0.000 0.000 0.000 0.000 0.000 1.24 Clear
04/18/2019 06:51 PM 82.94 65.30 54.50 86.18 54.32 37.0 x x x x x x x No 0.000 No Precipitation 04/16/2019 05:42 AM 04/16/2019 05:59 AM 0.000 0.000 0.000 0.000 0.000 1.24 Clear
04/18/2019 07:11 PM 83.30 65.48 55.04 86.18 54.32 38.0 x x x x x x x No 0.000 No Precipitation 04/16/2019 05:42 AM 04/16/2019 05:59 AM 0.000 0.000 0.000 0.000 0.000 1.24 Clear
04/18/2019 07:21 PM 83.48 65.30 55.04 86.18 54.32 37.0 x x x x x x x No 0.000 No Precipitation 04/16/2019 05:42 AM 04/16/2019 05:59 AM 0.000 0.000 0.000 0.000 0.000 1.24 Clear
04/18/2019 07:31 PM 83.12 65.12 54.50 86.18 54.32 37.0 x x x x x x x No 0.000 No Precipitation 04/16/2019 05:42 AM 04/16/2019 05:59 AM 0.000 0.000 0.000 0.000 0.000 1.24 Clear
04/18/2019 07:41 PM 82.94 65.30 55.04 86.18 54.32 38.0 x x x x x x x No 0.000 No Precipitation 04/16/2019 05:42 AM 04/16/2019 05:59 AM 0.000 0.000 0.000 0.000 0.000 1.24 Clear
04/18/2019 08:32 PM 80.42 65.12 56.12 86.18 54.32 43.0 x x x x x x x No 0.000 No Precipitation 04/16/2019 05:42 AM 04/16/2019 05:59 AM 0.000 0.000 0.000 0.000 0.000 1.24 Clear
04/18/2019 09:12 PM 78.26 64.40 56.66 86.18 54.32 47.0 x x x x x x x No 0.000 No Precipitation 04/16/2019 05:42 AM 04/16/2019 05:59 AM 0.000 0.000 0.000 0.000 0.000 1.24 Clear
04/18/2019 09:41 PM 77.00 64.40 57.20 86.18 54.32 50.0 x x x x x x x No 0.000 No Precipitation 04/16/2019 05:42 AM 04/16/2019 05:59 AM 0.000 0.000 0.000 0.000 0.000 1.24 Clear
04/18/2019 09:51 PM 76.46 63.86 56.48 86.18 54.32 50.0 x x x x x x x No 0.000 No Precipitation 04/16/2019 05:42 AM 04/16/2019 05:59 AM 0.000 0.000 0.000 0.000 0.000 1.24 Clear
04/18/2019 10:02 PM 76.10 64.04 57.02 86.18 54.32 51.0 x x x x x x x No 0.000 No Precipitation 04/16/2019 05:42 AM 04/16/2019 05:59 AM 0.000 0.000 0.000 0.000 0.000 1.24 Clear
04/18/2019 10:21 PM 75.92 63.68 56.30 86.18 54.32 50.0 x x x x x x x No 0.000 No Precipitation 04/16/2019 05:42 AM 04/16/2019 05:59 AM 0.000 0.000 0.000 0.000 0.000 1.24 Clear
04/18/2019 11:43 PM 70.34 62.06 57.02 86.18 54.32 63.0 x x x x x x x No 0.000 No Precipitation   04/16/2019 05:59 AM 0.000 0.000 0.000 0.000 0.000 1.24 Clear
04/18/2019 11:52 PM 69.26 62.06 57.56 86.18 54.32 66.0 x x x x x x x No 0.000 No Precipitation 04/16/2019 05:42 AM 04/16/2019 05:59 AM 0.000 0.000 0.000 0.000 0.000 1.24 Clear